createdAt,value
2018-10-19T00:02:05.297Z,101512.09
2018-10-19T00:04:41.535Z,101511.25
2018-10-19T00:07:18.269Z,101506.21
2018-10-19T00:09:54.397Z,101504.02
2018-10-19T00:12:30.721Z,101499.14
2018-10-19T00:15:07.080Z,101496.27
2018-10-19T00:17:43.336Z,101499.80
2018-10-19T00:20:19.829Z,101498.95
2018-10-19T00:22:56.238Z,101497.30
2018-10-19T00:25:32.297Z,101499.48
2018-10-19T00:28:08.719Z,101501.49
2018-10-19T00:30:45.186Z,101502.84
2018-10-19T00:33:21.187Z,101498.16
2018-10-19T00:35:57.268Z,101503.53
2018-10-19T00:38:33.678Z,101505.08
2018-10-19T00:41:10.650Z,101503.23
2018-10-19T00:43:47.187Z,101502.19
2018-10-19T00:46:23.478Z,101508.11
2018-10-19T00:49:00.080Z,101512.30
2018-10-19T00:51:36.081Z,101514.69
2018-10-19T00:54:13.126Z,101515.69
2018-10-19T00:56:49.344Z,101514.03
2018-10-19T00:59:26.193Z,101507.48
2018-10-19T01:02:02.235Z,101515.70
2018-10-19T01:04:38.439Z,101512.17
2018-10-19T01:07:14.669Z,101516.05
2018-10-19T01:09:51.065Z,101517.09
2018-10-19T01:12:27.069Z,101522.32
2018-10-19T01:15:03.973Z,101521.98
2018-10-19T01:17:40.092Z,101526.86
2018-10-19T01:20:16.200Z,101514.00
2018-10-19T01:22:52.422Z,101526.02
2018-10-19T01:25:29.204Z,101533.08
2018-10-19T01:28:05.091Z,101527.50
2018-10-19T01:30:41.309Z,101530.84
2018-10-19T01:33:17.398Z,101532.34
2018-10-19T01:35:53.317Z,101537.06
2018-10-19T01:38:29.301Z,101539.90
2018-10-19T01:41:05.595Z,101540.55
2018-10-19T01:43:41.858Z,101546.97
2018-10-19T01:46:18.217Z,101547.32
2018-10-19T01:48:54.301Z,101545.29
2018-10-19T01:51:30.426Z,101548.36
2018-10-19T01:54:06.486Z,101552.89
2018-10-19T01:56:42.782Z,101554.05
2018-10-19T01:59:19.120Z,101557.39
2018-10-19T02:01:54.891Z,101562.63
2018-10-19T02:04:30.915Z,101562.81
2018-10-19T02:07:07.102Z,101569.20
2018-10-19T02:09:43.615Z,101575.11
2018-10-19T02:12:19.785Z,101575.46
2018-10-19T02:14:55.975Z,101577.81
2018-10-19T02:17:33.482Z,101584.03
2018-10-19T02:20:09.545Z,101579.69
2018-10-19T02:22:45.341Z,101589.10
2018-10-19T02:25:21.761Z,101588.45
2018-10-19T02:27:58.226Z,101591.45
2018-10-19T02:30:34.325Z,101597.67
2018-10-19T02:33:11.087Z,101595.98
2018-10-19T02:35:48.353Z,101599.86
2018-10-19T02:38:24.127Z,101598.71
2018-10-19T02:41:00.337Z,101604.59
2018-10-19T02:43:36.480Z,101606.63
2018-10-19T02:46:12.896Z,101617.07
2018-10-19T02:48:49.392Z,101622.30
2018-10-19T02:51:26.668Z,101619.60
2018-10-19T02:54:02.461Z,101620.30
2018-10-19T02:56:38.734Z,101627.52
2018-10-19T02:59:14.579Z,101627.70
2018-10-19T03:01:50.638Z,101628.20
2018-10-19T03:04:26.554Z,101631.08
2018-10-19T03:07:02.606Z,101636.61
2018-10-19T03:09:39.110Z,101644.52
2018-10-19T03:12:15.111Z,101640.67
2018-10-19T03:14:51.118Z,101646.55
2018-10-19T03:17:27.145Z,101648.93
2018-10-19T03:20:03.311Z,101645.40
2018-10-19T03:25:01.718Z,101648.77
2018-10-19T03:27:38.894Z,101643.55
2018-10-19T03:30:14.910Z,101651.24
2018-10-19T03:32:50.768Z,101652.94
2018-10-19T03:35:27.121Z,101653.44
2018-10-19T03:38:03.052Z,101657.16
2018-10-19T03:40:39.523Z,101650.09
2018-10-19T03:43:15.481Z,101651.78
2018-10-19T03:45:52.134Z,101655.62
2018-10-19T03:48:27.871Z,101665.53
2018-10-19T03:51:03.843Z,101660.00
2018-10-19T03:53:40.143Z,101656.47
2018-10-19T03:56:16.021Z,101661.50
2018-10-19T03:58:52.146Z,101658.13
2018-10-19T04:01:27.854Z,101654.78
2018-10-19T04:04:04.179Z,101657.47
2018-10-19T04:06:40.385Z,101660.16
2018-10-19T04:09:16.676Z,101657.97
2018-10-19T04:11:53.370Z,101662.53
2018-10-19T04:14:29.742Z,101664.88
2018-10-19T04:17:05.610Z,101662.19
2018-10-19T04:19:42.143Z,101667.06
2018-10-19T04:22:18.366Z,101666.22
2018-10-19T04:24:54.388Z,101671.09
2018-10-19T04:27:30.619Z,101674.78
2018-10-19T04:30:07.159Z,101675.62
2018-10-19T04:32:43.238Z,101674.29
2018-10-19T04:35:20.123Z,101672.09
2018-10-19T04:37:56.276Z,101676.12
2018-10-19T04:40:32.557Z,101681.01
2018-10-19T04:43:09.167Z,101681.66
2018-10-19T04:45:46.439Z,101683.67
2018-10-19T04:48:22.537Z,101683.83
2018-10-19T04:50:58.914Z,101682.30
2018-10-19T04:53:35.651Z,101684.02
2018-10-19T04:56:12.135Z,101681.66
2018-10-19T04:58:48.478Z,101675.13
2018-10-19T05:01:24.853Z,101683.70
2018-10-19T05:04:00.927Z,101683.04
2018-10-19T05:06:37.954Z,101683.73
2018-10-19T05:09:15.351Z,101685.91
2018-10-19T05:11:51.990Z,101690.09
2018-10-19T05:14:28.189Z,101691.81
2018-10-19T05:17:04.464Z,101696.84
2018-10-19T05:19:41.025Z,101695.34
2018-10-19T05:22:17.384Z,101696.03
2018-10-19T05:24:53.487Z,101704.77
2018-10-19T05:27:30.542Z,101702.59
2018-10-19T05:30:07.182Z,101707.30
2018-10-19T05:32:44.611Z,101707.98
2018-10-19T05:35:21.296Z,101710.83
2018-10-19T05:37:57.590Z,101714.86
2018-10-19T05:40:33.973Z,101720.56
2018-10-19T05:43:10.309Z,101718.06
2018-10-19T05:45:46.474Z,101708.84
2018-10-19T05:48:22.867Z,101711.19
2018-10-19T05:50:59.388Z,101712.71
2018-10-19T05:53:36.193Z,101708.83
2018-10-19T05:56:13.318Z,101711.70
2018-10-19T05:58:50.534Z,101719.10
2018-10-19T06:01:26.797Z,101717.59
2018-10-19T06:04:03.198Z,101710.56
2018-10-19T06:06:39.308Z,101717.11
2018-10-19T06:09:15.637Z,101714.42
2018-10-19T06:11:51.432Z,101708.70
2018-10-19T06:14:28.054Z,101709.23
2018-10-19T06:17:04.362Z,101712.42
2018-10-19T06:19:40.169Z,101710.73
2018-10-19T06:22:15.708Z,101707.87
2018-10-19T06:24:51.836Z,101709.41
2018-10-19T06:27:28.201Z,101705.88
2018-10-19T06:30:05.103Z,101709.91
2018-10-19T06:32:41.387Z,101704.05
2018-10-19T06:35:18.030Z,101711.08
2018-10-19T06:37:54.456Z,101706.39
2018-10-19T06:40:30.605Z,101701.20
2018-10-19T06:43:06.896Z,101706.57
2018-10-19T06:45:42.905Z,101701.70
2018-10-19T06:48:19.220Z,101704.73
2018-10-19T06:50:54.624Z,101701.86
2018-10-19T06:53:30.894Z,101700.34
2018-10-19T06:56:07.235Z,101695.31
2018-10-19T06:58:43.626Z,101696.47
2018-10-19T07:01:20.325Z,101700.00
2018-10-19T07:03:56.205Z,101693.28
2018-10-19T07:06:32.365Z,101690.25
2018-10-19T07:09:09.332Z,101692.79
2018-10-19T07:11:45.493Z,101683.88
2018-10-19T07:14:21.231Z,101686.22
2018-10-19T07:16:57.238Z,101689.61
2018-10-19T07:19:34.225Z,101687.91
2018-10-19T07:22:10.218Z,101690.95
2018-10-19T07:24:46.020Z,101686.07
2018-10-19T07:27:22.244Z,101689.26
2018-10-19T07:29:58.980Z,101685.73
2018-10-19T07:32:35.223Z,101683.88
2018-10-19T07:35:12.458Z,101687.91
2018-10-19T07:37:49.071Z,101689.61
2018-10-19T07:40:25.502Z,101692.44
2018-10-19T07:43:01.239Z,101690.59
2018-10-19T07:45:38.014Z,101690.25
2018-10-19T07:48:14.079Z,101694.28
2018-10-19T07:50:50.570Z,101694.28
2018-10-19T07:53:27.194Z,101693.47
2018-10-19T07:56:03.511Z,101690.94
2018-10-19T07:58:39.654Z,101688.78
2018-10-19T08:01:15.660Z,101693.80
2018-10-19T08:03:52.450Z,101694.65
2018-10-19T08:06:28.674Z,101691.62
2018-10-19T08:09:05.111Z,101688.12
2018-10-19T08:11:41.322Z,101689.61
2018-10-19T08:14:17.709Z,101690.11
2018-10-19T08:16:54.076Z,101694.67
2018-10-19T08:19:30.477Z,101696.50
2018-10-19T08:22:07.070Z,101701.03
2018-10-19T08:24:43.429Z,101700.53
2018-10-19T08:27:20.234Z,101697.50
2018-10-19T08:29:56.430Z,101695.66
2018-10-19T08:32:32.483Z,101701.53
2018-10-19T08:35:09.246Z,101697.69
2018-10-19T08:37:45.575Z,101698.71
2018-10-19T08:40:21.846Z,101692.50
2018-10-19T08:42:58.164Z,101695.68
2018-10-19T08:45:34.608Z,101701.55
2018-10-19T08:48:10.635Z,101697.02
2018-10-19T08:50:46.623Z,101698.55
2018-10-19T08:53:22.937Z,101694.17
2018-10-19T08:55:59.082Z,101701.37
2018-10-19T08:58:35.070Z,101696.19
2018-10-19T09:01:11.582Z,101700.22
2018-10-19T09:03:48.100Z,101702.06
2018-10-19T09:06:24.112Z,101700.72
2018-10-19T09:09:00.516Z,101709.45
2018-10-19T09:11:36.575Z,101707.46
2018-10-19T09:14:26.781Z,101709.78
2018-10-19T09:17:03.675Z,101705.09
2018-10-19T09:19:40.034Z,101705.11
2018-10-19T09:22:16.258Z,101706.61
2018-10-19T09:24:52.930Z,101703.94
2018-10-19T09:27:29.264Z,101708.81
2018-10-19T09:30:05.060Z,101707.80
2018-10-19T09:32:41.853Z,101712.15
2018-10-19T09:35:18.053Z,101711.16
2018-10-19T09:37:54.663Z,101711.84
2018-10-19T09:40:31.453Z,101706.80
2018-10-19T09:43:08.094Z,101712.48
2018-10-19T09:45:44.262Z,101713.16
2018-10-19T09:48:20.494Z,101707.13
2018-10-19T09:50:56.513Z,101706.63
2018-10-19T09:53:32.693Z,101702.44
2018-10-19T09:56:09.342Z,101702.61
2018-10-19T09:58:45.476Z,101695.20
2018-10-19T10:01:25.365Z,101700.72
2018-10-19T10:04:01.662Z,101701.07
2018-10-19T10:06:38.430Z,101692.18
2018-10-19T10:09:19.279Z,101700.23
2018-10-19T10:11:55.569Z,101703.05
2018-10-19T10:14:31.671Z,101696.03
2018-10-19T10:17:08.463Z,101703.23
2018-10-19T10:19:44.713Z,101695.19
2018-10-19T10:22:21.269Z,101698.05
2018-10-19T10:24:57.947Z,101699.70
2018-10-19T10:27:35.287Z,101697.20
2018-10-19T10:30:13.163Z,101696.35
2018-10-19T10:32:49.287Z,101691.66
2018-10-19T10:35:25.781Z,101695.86
2018-10-19T10:38:02.463Z,101686.61
2018-10-19T10:40:38.799Z,101681.60
2018-10-19T10:43:15.539Z,101676.56
2018-10-19T10:45:51.497Z,101676.20
2018-10-19T10:48:27.481Z,101670.52
2018-10-19T10:51:03.643Z,101671.38
2018-10-19T10:53:40.081Z,101675.22
2018-10-19T10:56:16.081Z,101681.08
2018-10-19T10:58:52.665Z,101678.74
2018-10-19T11:01:29.253Z,101683.41
2018-10-19T11:04:05.593Z,101682.41
2018-10-19T11:06:41.949Z,101679.55
2018-10-19T11:09:18.111Z,101676.88
2018-10-19T11:11:55.034Z,101678.88
2018-10-19T11:14:31.290Z,101676.52
2018-10-19T11:17:07.474Z,101684.24
2018-10-19T11:20:48.464Z,101690.58
2018-10-19T11:23:24.710Z,101682.19
2018-10-19T11:26:00.704Z,101683.03
2018-10-19T11:28:38.055Z,101686.22
2018-10-19T11:31:16.197Z,101683.84
2018-10-19T11:34:01.389Z,101691.53
2018-10-19T11:36:42.950Z,101682.33
2018-10-19T11:39:22.092Z,101694.88
2018-10-19T11:42:00.096Z,101690.85
2018-10-19T11:47:35.694Z,101699.20
2018-10-19T11:50:11.963Z,101697.20
2018-10-19T11:52:48.506Z,101699.55
2018-10-19T11:55:24.481Z,101702.23
2018-10-19T11:58:00.461Z,101708.09
2018-10-19T12:00:36.748Z,101702.38
2018-10-19T12:03:13.474Z,101706.24
2018-10-19T12:05:49.579Z,101703.21
2018-10-19T12:08:25.638Z,101699.86
2018-10-19T12:11:01.693Z,101702.70
2018-10-19T12:13:38.118Z,101701.50
2018-10-19T12:16:14.310Z,101703.68
2018-10-19T12:18:50.441Z,101707.87
2018-10-19T12:21:26.711Z,101713.89
2018-10-19T12:24:04.325Z,101714.39
2018-10-19T12:26:40.675Z,101720.23
2018-10-19T12:29:17.435Z,101717.72
2018-10-19T12:31:53.512Z,101721.39
2018-10-19T12:34:29.947Z,101724.24
2018-10-19T12:37:06.342Z,101722.90
2018-10-19T12:39:42.775Z,101715.17
2018-10-19T12:42:18.656Z,101724.55
2018-10-19T12:44:55.056Z,101719.53
2018-10-19T12:47:41.485Z,101725.37
2018-10-19T12:50:17.656Z,101728.23
2018-10-19T12:52:54.125Z,101723.50
2018-10-19T12:55:30.350Z,101722.83
2018-10-19T12:58:06.489Z,101731.87
2018-10-19T13:00:42.341Z,101730.18
2018-10-19T13:03:18.750Z,101729.18
2018-10-19T13:05:55.168Z,101732.34
2018-10-19T13:08:31.300Z,101742.70
2018-10-19T13:11:07.413Z,101741.53
2018-10-19T13:13:43.353Z,101742.03
2018-10-19T13:16:19.398Z,101744.34
2018-10-19T13:18:55.965Z,101747.16
2018-10-19T13:21:32.275Z,101747.83
2018-10-19T13:24:08.214Z,101751.33
2018-10-19T13:26:44.299Z,101753.65
2018-10-19T13:29:20.676Z,101753.81
2018-10-19T13:31:56.888Z,101749.44
2018-10-19T13:34:33.327Z,101749.61
2018-10-19T13:37:09.632Z,101748.44
2018-10-19T13:39:45.713Z,101751.91
2018-10-19T13:42:21.696Z,101752.92
2018-10-19T13:44:58.158Z,101753.75
2018-10-19T13:47:34.340Z,101759.73
2018-10-19T13:50:12.513Z,101758.72
2018-10-19T13:52:48.352Z,101755.69
2018-10-19T13:55:24.725Z,101756.02
2018-10-19T13:58:01.510Z,101758.34
2018-10-19T14:00:37.621Z,101764.70
2018-10-19T14:03:13.891Z,101766.67
2018-10-19T14:05:50.328Z,101759.46
2018-10-19T14:08:26.494Z,101760.97
2018-10-19T14:11:02.375Z,101769.48
2018-10-19T14:13:38.808Z,101771.97
2018-10-19T14:16:14.920Z,101773.80
2018-10-19T14:18:50.860Z,101774.31
2018-10-19T14:21:27.360Z,101771.09
2018-10-19T14:24:03.684Z,101775.78
2018-10-19T14:26:40.278Z,101770.11
2018-10-19T14:29:16.577Z,101775.59
2018-10-19T14:31:53.012Z,101768.77
2018-10-19T14:34:29.345Z,101771.97
2018-10-19T14:37:05.529Z,101770.14
2018-10-19T14:39:42.352Z,101770.98
2018-10-19T14:42:18.352Z,101775.66
2018-10-19T14:44:54.781Z,101771.45
2018-10-19T14:47:31.324Z,101773.93
2018-10-19T14:50:07.390Z,101778.56
2018-10-19T14:52:43.407Z,101782.87
2018-10-19T14:55:21.337Z,101791.23
2018-10-19T14:57:57.602Z,101781.05
2018-10-19T15:00:33.940Z,101788.23
2018-10-19T15:03:10.180Z,101789.98
2018-10-19T15:05:47.671Z,101793.48
2018-10-19T15:08:24.264Z,101799.61
2018-10-19T15:11:00.544Z,101796.61
2018-10-19T15:13:38.789Z,101798.08
2018-10-19T15:16:14.997Z,101798.44
2018-10-19T15:18:51.547Z,101804.11
2018-10-19T15:21:27.549Z,101794.42
2018-10-19T15:24:04.181Z,101801.95
2018-10-19T15:26:40.369Z,101799.77
2018-10-19T15:29:16.983Z,101807.31
2018-10-19T15:31:53.379Z,101807.31
2018-10-19T15:34:30.494Z,101813.14
2018-10-19T15:37:06.551Z,101818.14
2018-10-19T15:39:42.612Z,101818.14
2018-10-19T15:42:19.749Z,101826.32
2018-10-19T15:44:56.346Z,101829.48
2018-10-19T15:47:34.406Z,101830.13
2018-10-19T15:50:10.813Z,101820.28
2018-10-19T15:52:47.132Z,101826.81
2018-10-19T15:55:23.589Z,101830.50
2018-10-19T15:57:59.826Z,101835.59
2018-10-19T16:00:34.403Z,101834.59
2018-10-19T16:03:10.673Z,101841.93
2018-10-19T16:05:47.056Z,101837.00
2018-10-19T16:08:23.501Z,101838.43
2018-10-19T16:10:59.440Z,101840.09
2018-10-19T16:13:36.064Z,101837.05
2018-10-19T16:16:12.573Z,101842.73
2018-10-19T16:18:48.587Z,101843.70
2018-10-19T16:21:24.586Z,101845.70
2018-10-19T16:24:00.430Z,101848.01
2018-10-19T16:27:10.100Z,101848.33
2018-10-19T16:29:46.563Z,101857.20
2018-10-19T16:32:22.728Z,101849.50
2018-10-19T16:34:59.041Z,101851.85
2018-10-19T16:37:35.397Z,101849.50
2018-10-19T16:40:11.586Z,101848.17
2018-10-19T16:42:48.289Z,101858.38
2018-10-19T16:45:24.897Z,101845.85
2018-10-19T16:48:01.270Z,101846.19
2018-10-19T16:53:22.512Z,101853.44
2018-10-19T16:55:58.631Z,101843.47
2018-10-19T16:58:34.705Z,101846.19
2018-10-19T17:01:11.212Z,101847.03
2018-10-19T17:03:47.574Z,101846.55
2018-10-19T17:06:23.566Z,101846.87
2018-10-19T17:08:59.620Z,101850.75
2018-10-19T17:11:35.560Z,101842.73
2018-10-19T17:14:12.569Z,101843.22
2018-10-19T17:16:48.578Z,101847.07
2018-10-19T17:19:25.084Z,101846.09
2018-10-19T17:22:01.272Z,101844.23
2018-10-19T17:24:37.456Z,101844.23
2018-10-19T17:27:13.477Z,101844.95
2018-10-19T17:29:49.236Z,101842.28
2018-10-19T17:32:25.573Z,101839.44
2018-10-19T17:35:01.413Z,101841.47
2018-10-19T17:37:38.197Z,101843.13
2018-10-19T17:40:14.756Z,101839.67
2018-10-19T17:42:51.357Z,101840.72
2018-10-19T17:45:27.441Z,101829.20
2018-10-19T17:48:03.426Z,101831.42
2018-10-19T17:50:39.581Z,101828.09
2018-10-19T17:53:15.457Z,101826.76
2018-10-19T17:55:51.753Z,101829.47
2018-10-19T17:58:28.411Z,101817.75
2018-10-19T18:01:04.536Z,101817.81
2018-10-19T18:03:40.604Z,101813.97
2018-10-19T18:06:16.486Z,101818.17
2018-10-19T18:08:52.322Z,101816.54
2018-10-19T18:11:28.484Z,101812.88
2018-10-19T18:14:04.311Z,101807.69
2018-10-19T18:16:40.238Z,101814.09
2018-10-19T18:19:16.413Z,101809.77
2018-10-19T18:21:52.227Z,101805.42
2018-10-19T18:24:28.409Z,101805.62
2018-10-19T18:27:04.726Z,101802.16
2018-10-19T18:29:40.415Z,101803.16
2018-10-19T18:32:16.667Z,101797.14
2018-10-19T18:34:52.489Z,101795.02
2018-10-19T18:37:28.608Z,101794.68
2018-10-19T18:40:05.188Z,101782.69
2018-10-19T18:42:41.092Z,101779.70
2018-10-19T18:45:17.090Z,101782.41
2018-10-19T18:47:52.901Z,101779.06
2018-10-19T18:50:29.191Z,101781.27
2018-10-19T18:53:05.213Z,101770.75
2018-10-19T18:55:41.649Z,101771.28
2018-10-19T18:58:17.411Z,101762.59
2018-10-19T19:00:52.853Z,101762.61
2018-10-19T19:03:28.818Z,101763.61
2018-10-19T19:06:04.388Z,101763.80
2018-10-19T19:08:39.793Z,101761.12
2018-10-19T19:11:16.236Z,101758.63
2018-10-19T19:13:53.131Z,101752.47
2018-10-19T19:16:31.061Z,101748.95
2018-10-19T19:19:07.930Z,101743.11
2018-10-19T19:21:43.782Z,101729.89
2018-10-19T19:24:24.085Z,101740.12
2018-10-19T19:27:00.302Z,101729.45
2018-10-19T19:29:35.641Z,101723.91
2018-10-19T19:32:11.755Z,101722.94
2018-10-19T19:34:47.358Z,101716.06
2018-10-19T19:37:23.205Z,101713.42
2018-10-19T19:39:59.447Z,101708.37
2018-10-19T19:42:42.847Z,101703.02
2018-10-19T19:45:19.072Z,101694.48
2018-10-19T19:47:59.622Z,101686.97
2018-10-19T19:50:35.624Z,101685.63
2018-10-19T19:53:11.813Z,101678.08
2018-10-19T19:55:48.426Z,101675.92
2018-10-19T19:58:25.208Z,101671.54
2018-10-19T20:01:01.751Z,101671.54
2018-10-19T20:03:38.095Z,101665.67
2018-10-19T20:06:14.463Z,101663.52
2018-10-19T20:08:50.636Z,101658.84
2018-10-19T20:11:26.684Z,101653.65
2018-10-19T20:14:02.820Z,101648.77
2018-10-19T20:16:39.357Z,101639.06
2018-10-19T20:19:15.457Z,101635.20
2018-10-19T20:21:51.581Z,101630.31
2018-10-19T20:24:27.637Z,101631.64
2018-10-19T20:27:04.134Z,101621.92
2018-10-19T20:29:40.454Z,101617.88
2018-10-19T20:32:16.865Z,101614.52
2018-10-19T20:34:53.525Z,101614.50
2018-10-19T20:37:29.857Z,101605.77
2018-10-19T20:40:05.853Z,101602.76
2018-10-19T20:42:42.266Z,101599.22
2018-10-19T20:45:18.488Z,101590.83
2018-10-19T20:47:54.974Z,101589.96
2018-10-19T20:50:31.153Z,101588.78
2018-10-19T20:53:07.485Z,101579.05
2018-10-19T20:55:43.946Z,101579.56
2018-10-19T20:58:20.145Z,101574.35
2018-10-19T21:00:57.471Z,101567.30
2018-10-19T21:03:34.460Z,101566.93
2018-10-19T21:06:10.488Z,101566.09
2018-10-19T21:08:46.459Z,101559.04
2018-10-19T21:11:22.498Z,101552.45
2018-10-19T21:13:58.273Z,101551.61
2018-10-19T21:16:34.045Z,101547.74
2018-10-19T21:19:10.347Z,101546.88
2018-10-19T21:21:46.366Z,101540.47
2018-10-19T21:24:22.485Z,101537.41
2018-10-19T21:26:58.045Z,101532.70
2018-10-19T21:29:34.397Z,101535.88
2018-10-19T21:32:11.293Z,101529.63
2018-10-19T21:34:47.325Z,101531.63
2018-10-19T21:37:23.657Z,101525.06
2018-10-19T21:39:59.154Z,101523.69
2018-10-19T21:42:35.218Z,101523.03
2018-10-19T21:45:11.695Z,101522.88
2018-10-19T21:47:47.292Z,101527.06
2018-10-19T21:50:25.775Z,101521.16
2018-10-19T21:53:01.526Z,101516.13
2018-10-19T21:55:37.242Z,101519.46
2018-10-19T21:58:12.916Z,101508.86
2018-10-19T22:00:49.073Z,101510.02
2018-10-19T22:03:25.479Z,101503.95
2018-10-19T22:06:01.461Z,101501.91
2018-10-19T22:08:37.625Z,101497.19
2018-10-19T22:11:13.562Z,101500.03
2018-10-19T22:13:49.385Z,101494.49
2018-10-19T22:16:25.501Z,101494.30
2018-10-19T22:19:01.511Z,101496.80
2018-10-19T22:21:37.178Z,101499.14
2018-10-19T22:24:13.985Z,101498.10
2018-10-19T22:26:50.434Z,101494.22
2018-10-19T22:29:26.109Z,101487.34
2018-10-19T22:32:02.228Z,101484.64
2018-10-19T22:34:38.126Z,101483.42
2018-10-19T22:37:14.057Z,101484.10
2018-10-19T22:39:49.855Z,101475.84
2018-10-19T22:42:25.512Z,101475.34
2018-10-19T22:45:01.493Z,101476.49
2018-10-19T22:47:37.314Z,101474.14
2018-10-19T22:50:13.125Z,101471.77
2018-10-19T22:52:49.512Z,101473.61
2018-10-19T22:55:25.494Z,101469.58
2018-10-19T22:58:01.511Z,101464.73
2018-10-19T23:00:37.217Z,101466.73
2018-10-19T23:03:13.143Z,101469.22
2018-10-19T23:05:49.269Z,101460.95
2018-10-19T23:08:25.334Z,101458.42
2018-10-19T23:11:01.535Z,101455.73
2018-10-19T23:13:37.694Z,101455.53
2018-10-19T23:16:14.082Z,101457.72
2018-10-19T23:18:50.691Z,101448.64
2018-10-19T23:21:27.050Z,101447.30
2018-10-19T23:24:04.063Z,101448.45
2018-10-19T23:26:44.689Z,101443.95
2018-10-19T23:29:20.475Z,101446.13
2018-10-19T23:31:56.333Z,101435.68
2018-10-19T23:35:10.359Z,101434.35
2018-10-19T23:37:46.393Z,101432.99
2018-10-19T23:40:22.344Z,101430.45
2018-10-19T23:42:59.290Z,101426.55
2018-10-19T23:45:36.293Z,101417.14
2018-10-19T23:50:55.741Z,101421.13
2018-10-19T23:53:34.435Z,101419.08
2018-10-19T23:56:11.260Z,101415.05
2018-10-19T23:58:51.043Z,101413.19
